sensor_id;sensor_type;location;lat;lon;timestamp;P1;durP1;ratioP1;P2;durP2;ratioP2
45206;SDS011;30950;53.086;21.576;2023-12-07T00:00:16;40.22;;;19.48;;
45206;SDS011;30950;53.086;21.576;2023-12-07T00:03:04;44.90;;;20.10;;
45206;SDS011;30950;53.086;21.576;2023-12-07T00:05:33;45.60;;;19.90;;
45206;SDS011;30950;53.086;21.576;2023-12-07T00:08:01;44.60;;;18.92;;
45206;SDS011;30950;53.086;21.576;2023-12-07T00:10:29;43.13;;;18.63;;
45206;SDS011;30950;53.086;21.576;2023-12-07T00:12:57;44.65;;;21.83;;
45206;SDS011;30950;53.086;21.576;2023-12-07T00:15:24;39.05;;;18.33;;
45206;SDS011;30950;53.086;21.576;2023-12-07T00:17:52;44.35;;;18.75;;
45206;SDS011;30950;53.086;21.576;2023-12-07T00:20:19;41.30;;;19.70;;
45206;SDS011;30950;53.086;21.576;2023-12-07T00:22:47;47.45;;;18.75;;
45206;SDS011;30950;53.086;21.576;2023-12-07T00:25:14;40.53;;;18.58;;
45206;SDS011;30950;53.086;21.576;2023-12-07T00:27:42;36.30;;;17.92;;
45206;SDS011;30950;53.086;21.576;2023-12-07T00:30:10;44.50;;;18.70;;
45206;SDS011;30950;53.086;21.576;2023-12-07T00:32:38;44.42;;;19.42;;
45206;SDS011;30950;53.086;21.576;2023-12-07T00:35:07;46.47;;;18.60;;
45206;SDS011;30950;53.086;21.576;2023-12-07T00:37:35;38.42;;;18.45;;
45206;SDS011;30950;53.086;21.576;2023-12-07T00:40:02;45.25;;;19.63;;
45206;SDS011;30950;53.086;21.576;2023-12-07T00:42:31;44.78;;;20.65;;
45206;SDS011;30950;53.086;21.576;2023-12-07T00:44:58;44.30;;;20.02;;
45206;SDS011;30950;53.086;21.576;2023-12-07T00:47:26;43.67;;;20.95;;
45206;SDS011;30950;53.086;21.576;2023-12-07T00:49:53;48.22;;;18.20;;
45206;SDS011;30950;53.086;21.576;2023-12-07T00:52:20;43.65;;;19.67;;
45206;SDS011;30950;53.086;21.576;2023-12-07T00:54:48;44.17;;;20.27;;
45206;SDS011;30950;53.086;21.576;2023-12-07T00:57:16;47.63;;;20.52;;
45206;SDS011;30950;53.086;21.576;2023-12-07T00:59:43;44.88;;;20.52;;
45206;SDS011;30950;53.086;21.576;2023-12-07T01:02:11;43.17;;;19.92;;
45206;SDS011;30950;53.086;21.576;2023-12-07T01:04:38;41.55;;;19.30;;
45206;SDS011;30950;53.086;21.576;2023-12-07T01:07:06;43.38;;;19.70;;
45206;SDS011;30950;53.086;21.576;2023-12-07T01:09:34;50.25;;;22.08;;
45206;SDS011;30950;53.086;21.576;2023-12-07T01:12:02;45.50;;;18.85;;
45206;SDS011;30950;53.086;21.576;2023-12-07T01:14:30;44.40;;;19.52;;
45206;SDS011;30950;53.086;21.576;2023-12-07T01:16:57;48.72;;;20.50;;
45206;SDS011;30950;53.086;21.576;2023-12-07T01:19:25;45.40;;;19.92;;
45206;SDS011;30950;53.086;21.576;2023-12-07T01:21:52;54.55;;;20.55;;
45206;SDS011;30950;53.086;21.576;2023-12-07T01:24:20;50.97;;;21.17;;
45206;SDS011;30950;53.086;21.576;2023-12-07T01:26:47;47.78;;;19.60;;
45206;SDS011;30950;53.086;21.576;2023-12-07T01:29:15;52.88;;;21.52;;
45206;SDS011;30950;53.086;21.576;2023-12-07T01:31:42;52.92;;;22.20;;
45206;SDS011;30950;53.086;21.576;2023-12-07T01:34:10;42.60;;;19.65;;
45206;SDS011;30950;53.086;21.576;2023-12-07T01:36:37;48.60;;;20.48;;
45206;SDS011;30950;53.086;21.576;2023-12-07T01:39:05;42.70;;;18.45;;
45206;SDS011;30950;53.086;21.576;2023-12-07T01:41:33;48.28;;;21.60;;
45206;SDS011;30950;53.086;21.576;2023-12-07T01:44:00;45.53;;;19.85;;
45206;SDS011;30950;53.086;21.576;2023-12-07T01:46:28;48.90;;;20.15;;
45206;SDS011;30950;53.086;21.576;2023-12-07T01:48:56;48.67;;;20.02;;
45206;SDS011;30950;53.086;21.576;2023-12-07T01:51:23;54.85;;;21.88;;
45206;SDS011;30950;53.086;21.576;2023-12-07T01:53:51;51.92;;;21.35;;
45206;SDS011;30950;53.086;21.576;2023-12-07T01:56:19;47.30;;;20.95;;
45206;SDS011;30950;53.086;21.576;2023-12-07T01:58:47;49.45;;;21.02;;
45206;SDS011;30950;53.086;21.576;2023-12-07T02:01:16;49.50;;;19.05;;
45206;SDS011;30950;53.086;21.576;2023-12-07T02:03:44;49.72;;;20.70;;
45206;SDS011;30950;53.086;21.576;2023-12-07T02:06:12;48.22;;;20.58;;
45206;SDS011;30950;53.086;21.576;2023-12-07T02:08:40;49.20;;;21.00;;
45206;SDS011;30950;53.086;21.576;2023-12-07T02:11:09;58.70;;;22.77;;
45206;SDS011;30950;53.086;21.576;2023-12-07T02:13:37;51.47;;;22.48;;
45206;SDS011;30950;53.086;21.576;2023-12-07T02:21:58;46.63;;;19.02;;
45206;SDS011;30950;53.086;21.576;2023-12-07T02:24:29;46.83;;;20.20;;
45206;SDS011;30950;53.086;21.576;2023-12-07T02:27:00;55.75;;;20.88;;
45206;SDS011;30950;53.086;21.576;2023-12-07T02:29:27;52.03;;;19.70;;
45206;SDS011;30950;53.086;21.576;2023-12-07T02:31:54;57.22;;;22.65;;
45206;SDS011;30950;53.086;21.576;2023-12-07T02:34:22;55.13;;;21.55;;
45206;SDS011;30950;53.086;21.576;2023-12-07T02:36:50;54.20;;;21.90;;
45206;SDS011;30950;53.086;21.576;2023-12-07T02:39:20;54.97;;;20.25;;
45206;SDS011;30950;53.086;21.576;2023-12-07T02:41:50;52.50;;;20.80;;
45206;SDS011;30950;53.086;21.576;2023-12-07T02:44:19;57.22;;;21.17;;
45206;SDS011;30950;53.086;21.576;2023-12-07T02:46:46;48.03;;;20.27;;
45206;SDS011;30950;53.086;21.576;2023-12-07T02:49:14;57.10;;;22.75;;
45206;SDS011;30950;53.086;21.576;2023-12-07T02:51:41;55.83;;;20.70;;
45206;SDS011;30950;53.086;21.576;2023-12-07T02:54:09;52.97;;;21.30;;
45206;SDS011;30950;53.086;21.576;2023-12-07T02:56:36;51.40;;;20.35;;
45206;SDS011;30950;53.086;21.576;2023-12-07T02:59:04;54.78;;;22.25;;
45206;SDS011;30950;53.086;21.576;2023-12-07T03:01:31;58.20;;;20.30;;
45206;SDS011;30950;53.086;21.576;2023-12-07T03:03:59;52.47;;;20.90;;
45206;SDS011;30950;53.086;21.576;2023-12-07T03:06:26;53.20;;;20.92;;
45206;SDS011;30950;53.086;21.576;2023-12-07T03:08:55;52.80;;;20.65;;
45206;SDS011;30950;53.086;21.576;2023-12-07T03:11:23;54.10;;;20.67;;
45206;SDS011;30950;53.086;21.576;2023-12-07T03:13:51;67.32;;;23.80;;
45206;SDS011;30950;53.086;21.576;2023-12-07T03:16:18;50.03;;;20.38;;
45206;SDS011;30950;53.086;21.576;2023-12-07T03:18:46;53.88;;;21.55;;
45206;SDS011;30950;53.086;21.576;2023-12-07T03:21:13;57.55;;;22.83;;
45206;SDS011;30950;53.086;21.576;2023-12-07T03:23:41;51.75;;;21.65;;
45206;SDS011;30950;53.086;21.576;2023-12-07T03:26:08;61.58;;;22.85;;
45206;SDS011;30950;53.086;21.576;2023-12-07T03:28:35;58.38;;;22.13;;
45206;SDS011;30950;53.086;21.576;2023-12-07T03:31:04;45.22;;;20.30;;
45206;SDS011;30950;53.086;21.576;2023-12-07T03:33:32;51.45;;;21.10;;
45206;SDS011;30950;53.086;21.576;2023-12-07T03:35:59;48.13;;;19.77;;
45206;SDS011;30950;53.086;21.576;2023-12-07T03:38:27;51.95;;;20.25;;
45206;SDS011;30950;53.086;21.576;2023-12-07T03:40:54;54.03;;;20.52;;
45206;SDS011;30950;53.086;21.576;2023-12-07T03:43:22;47.75;;;19.88;;
45206;SDS011;30950;53.086;21.576;2023-12-07T03:45:49;54.08;;;20.63;;
45206;SDS011;30950;53.086;21.576;2023-12-07T03:48:16;52.90;;;21.08;;
45206;SDS011;30950;53.086;21.576;2023-12-07T03:50:44;50.03;;;20.35;;
45206;SDS011;30950;53.086;21.576;2023-12-07T03:53:12;54.95;;;22.58;;
45206;SDS011;30950;53.086;21.576;2023-12-07T03:55:39;50.63;;;19.92;;
45206;SDS011;30950;53.086;21.576;2023-12-07T03:58:07;46.30;;;20.13;;
45206;SDS011;30950;53.086;21.576;2023-12-07T04:00:34;52.35;;;21.70;;
45206;SDS011;30950;53.086;21.576;2023-12-07T04:03:02;52.40;;;22.23;;
45206;SDS011;30950;53.086;21.576;2023-12-07T04:05:29;47.35;;;19.38;;
45206;SDS011;30950;53.086;21.576;2023-12-07T04:07:57;47.47;;;20.48;;
45206;SDS011;30950;53.086;21.576;2023-12-07T04:10:25;43.58;;;18.48;;
45206;SDS011;30950;53.086;21.576;2023-12-07T04:12:52;42.75;;;19.08;;
45206;SDS011;30950;53.086;21.576;2023-12-07T04:15:20;49.33;;;20.73;;
45206;SDS011;30950;53.086;21.576;2023-12-07T04:17:47;44.35;;;18.58;;
45206;SDS011;30950;53.086;21.576;2023-12-07T04:20:15;51.92;;;21.17;;
45206;SDS011;30950;53.086;21.576;2023-12-07T04:22:43;51.75;;;20.95;;
45206;SDS011;30950;53.086;21.576;2023-12-07T04:25:12;48.42;;;22.52;;
45206;SDS011;30950;53.086;21.576;2023-12-07T04:27:40;46.30;;;21.67;;
45206;SDS011;30950;53.086;21.576;2023-12-07T04:30:07;48.33;;;20.70;;
45206;SDS011;30950;53.086;21.576;2023-12-07T04:32:35;49.63;;;22.30;;
45206;SDS011;30950;53.086;21.576;2023-12-07T04:35:03;44.85;;;19.90;;
45206;SDS011;30950;53.086;21.576;2023-12-07T04:37:31;48.13;;;21.88;;
45206;SDS011;30950;53.086;21.576;2023-12-07T04:39:58;50.83;;;21.33;;
45206;SDS011;30950;53.086;21.576;2023-12-07T04:42:26;51.30;;;20.85;;
45206;SDS011;30950;53.086;21.576;2023-12-07T04:44:53;49.35;;;22.48;;
45206;SDS011;30950;53.086;21.576;2023-12-07T04:47:21;56.20;;;23.80;;
45206;SDS011;30950;53.086;21.576;2023-12-07T04:49:50;47.05;;;19.92;;
45206;SDS011;30950;53.086;21.576;2023-12-07T04:52:18;56.95;;;22.95;;
45206;SDS011;30950;53.086;21.576;2023-12-07T04:54:46;47.67;;;22.13;;
45206;SDS011;30950;53.086;21.576;2023-12-07T04:57:14;52.03;;;21.60;;
45206;SDS011;30950;53.086;21.576;2023-12-07T04:59:41;46.30;;;20.55;;
45206;SDS011;30950;53.086;21.576;2023-12-07T05:02:16;49.28;;;19.73;;
45206;SDS011;30950;53.086;21.576;2023-12-07T05:04:44;52.67;;;21.55;;
45206;SDS011;30950;53.086;21.576;2023-12-07T05:07:12;56.55;;;22.65;;
45206;SDS011;30950;53.086;21.576;2023-12-07T05:09:40;47.47;;;20.45;;
45206;SDS011;30950;53.086;21.576;2023-12-07T05:12:08;50.50;;;21.33;;
45206;SDS011;30950;53.086;21.576;2023-12-07T05:14:36;48.42;;;21.55;;
45206;SDS011;30950;53.086;21.576;2023-12-07T05:17:03;52.13;;;22.70;;
45206;SDS011;30950;53.086;21.576;2023-12-07T05:19:32;51.63;;;23.90;;
45206;SDS011;30950;53.086;21.576;2023-12-07T05:21:59;48.22;;;23.70;;
45206;SDS011;30950;53.086;21.576;2023-12-07T05:24:27;47.08;;;21.38;;
45206;SDS011;30950;53.086;21.576;2023-12-07T05:26:55;48.70;;;21.05;;
45206;SDS011;30950;53.086;21.576;2023-12-07T05:29:22;52.67;;;22.73;;
45206;SDS011;30950;53.086;21.576;2023-12-07T05:31:50;47.70;;;21.25;;
45206;SDS011;30950;53.086;21.576;2023-12-07T05:34:18;52.05;;;21.75;;
45206;SDS011;30950;53.086;21.576;2023-12-07T05:36:46;47.30;;;22.23;;
45206;SDS011;30950;53.086;21.576;2023-12-07T05:39:14;43.90;;;21.25;;
45206;SDS011;30950;53.086;21.576;2023-12-07T05:41:45;55.42;;;21.63;;
45206;SDS011;30950;53.086;21.576;2023-12-07T05:44:14;42.95;;;20.85;;
45206;SDS011;30950;53.086;21.576;2023-12-07T05:46:49;52.13;;;22.50;;
45206;SDS011;30950;53.086;21.576;2023-12-07T05:49:17;52.25;;;22.65;;
45206;SDS011;30950;53.086;21.576;2023-12-07T05:51:49;49.95;;;23.08;;
45206;SDS011;30950;53.086;21.576;2023-12-07T05:54:20;51.92;;;21.73;;
45206;SDS011;30950;53.086;21.576;2023-12-07T05:56:50;48.50;;;21.65;;
45206;SDS011;30950;53.086;21.576;2023-12-07T05:59:17;43.20;;;21.15;;
45206;SDS011;30950;53.086;21.576;2023-12-07T06:01:45;49.25;;;22.10;;
45206;SDS011;30950;53.086;21.576;2023-12-07T06:04:12;50.05;;;23.08;;
45206;SDS011;30950;53.086;21.576;2023-12-07T06:06:43;50.00;;;23.17;;
45206;SDS011;30950;53.086;21.576;2023-12-07T06:09:10;48.25;;;22.52;;
45206;SDS011;30950;53.086;21.576;2023-12-07T06:11:38;56.45;;;23.95;;
45206;SDS011;30950;53.086;21.576;2023-12-07T06:14:05;42.13;;;21.75;;
45206;SDS011;30950;53.086;21.576;2023-12-07T06:16:33;48.05;;;23.00;;
45206;SDS011;30950;53.086;21.576;2023-12-07T06:19:00;52.35;;;24.95;;
45206;SDS011;30950;53.086;21.576;2023-12-07T06:21:28;46.85;;;22.35;;
45206;SDS011;30950;53.086;21.576;2023-12-07T06:23:56;47.13;;;23.73;;
45206;SDS011;30950;53.086;21.576;2023-12-07T06:26:25;44.90;;;23.10;;
45206;SDS011;30950;53.086;21.576;2023-12-07T06:28:53;52.72;;;25.00;;
45206;SDS011;30950;53.086;21.576;2023-12-07T06:31:20;46.63;;;22.50;;
45206;SDS011;30950;53.086;21.576;2023-12-07T06:33:48;50.83;;;23.95;;
45206;SDS011;30950;53.086;21.576;2023-12-07T06:36:22;45.40;;;23.40;;
45206;SDS011;30950;53.086;21.576;2023-12-07T06:38:51;48.53;;;21.60;;
45206;SDS011;30950;53.086;21.576;2023-12-07T06:41:18;47.45;;;22.67;;
45206;SDS011;30950;53.086;21.576;2023-12-07T06:43:45;47.92;;;24.42;;
45206;SDS011;30950;53.086;21.576;2023-12-07T06:46:13;49.00;;;23.30;;
45206;SDS011;30950;53.086;21.576;2023-12-07T06:48:41;48.45;;;23.17;;
45206;SDS011;30950;53.086;21.576;2023-12-07T06:51:09;47.30;;;22.73;;
45206;SDS011;30950;53.086;21.576;2023-12-07T06:53:36;48.65;;;24.00;;
45206;SDS011;30950;53.086;21.576;2023-12-07T06:56:04;52.53;;;25.98;;
45206;SDS011;30950;53.086;21.576;2023-12-07T06:58:31;52.15;;;24.33;;
45206;SDS011;30950;53.086;21.576;2023-12-07T07:00:59;54.63;;;24.77;;
45206;SDS011;30950;53.086;21.576;2023-12-07T07:03:26;50.40;;;24.40;;
45206;SDS011;30950;53.086;21.576;2023-12-07T07:05:54;48.90;;;24.23;;
45206;SDS011;30950;53.086;21.576;2023-12-07T07:08:22;50.78;;;25.17;;
45206;SDS011;30950;53.086;21.576;2023-12-07T07:10:49;42.75;;;23.45;;
45206;SDS011;30950;53.086;21.576;2023-12-07T07:13:17;50.65;;;25.60;;
45206;SDS011;30950;53.086;21.576;2023-12-07T07:15:47;50.08;;;23.60;;
45206;SDS011;30950;53.086;21.576;2023-12-07T07:18:17;51.72;;;24.70;;
45206;SDS011;30950;53.086;21.576;2023-12-07T07:20:45;48.70;;;25.65;;
45206;SDS011;30950;53.086;21.576;2023-12-07T07:23:12;45.95;;;22.23;;
45206;SDS011;30950;53.086;21.576;2023-12-07T07:25:41;50.22;;;23.80;;
45206;SDS011;30950;53.086;21.576;2023-12-07T07:28:09;47.90;;;24.63;;
45206;SDS011;30950;53.086;21.576;2023-12-07T07:30:37;52.85;;;24.55;;
45206;SDS011;30950;53.086;21.576;2023-12-07T07:33:05;47.47;;;24.67;;
45206;SDS011;30950;53.086;21.576;2023-12-07T07:35:33;49.92;;;26.75;;
45206;SDS011;30950;53.086;21.576;2023-12-07T07:38:00;49.53;;;25.15;;
45206;SDS011;30950;53.086;21.576;2023-12-07T07:40:28;46.35;;;23.83;;
45206;SDS011;30950;53.086;21.576;2023-12-07T07:42:55;44.33;;;23.45;;
45206;SDS011;30950;53.086;21.576;2023-12-07T07:45:23;46.58;;;23.98;;
45206;SDS011;30950;53.086;21.576;2023-12-07T07:47:51;51.58;;;25.40;;
45206;SDS011;30950;53.086;21.576;2023-12-07T07:50:19;53.42;;;26.80;;
45206;SDS011;30950;53.086;21.576;2023-12-07T07:52:46;54.33;;;25.33;;
45206;SDS011;30950;53.086;21.576;2023-12-07T07:55:14;51.55;;;26.25;;
45206;SDS011;30950;53.086;21.576;2023-12-07T07:57:42;52.55;;;26.50;;
45206;SDS011;30950;53.086;21.576;2023-12-07T08:00:10;52.80;;;26.60;;
45206;SDS011;30950;53.086;21.576;2023-12-07T08:02:39;55.72;;;26.17;;
45206;SDS011;30950;53.086;21.576;2023-12-07T08:05:07;50.35;;;25.45;;
45206;SDS011;30950;53.086;21.576;2023-12-07T08:07:34;56.47;;;27.80;;
45206;SDS011;30950;53.086;21.576;2023-12-07T08:10:02;51.75;;;27.60;;
45206;SDS011;30950;53.086;21.576;2023-12-07T08:12:30;48.28;;;25.52;;
45206;SDS011;30950;53.086;21.576;2023-12-07T08:14:58;44.00;;;22.77;;
45206;SDS011;30950;53.086;21.576;2023-12-07T08:17:25;46.95;;;24.30;;
45206;SDS011;30950;53.086;21.576;2023-12-07T08:19:53;47.00;;;24.45;;
45206;SDS011;30950;53.086;21.576;2023-12-07T08:22:21;51.63;;;26.80;;
45206;SDS011;30950;53.086;21.576;2023-12-07T08:24:48;48.05;;;27.63;;
45206;SDS011;30950;53.086;21.576;2023-12-07T08:27:33;42.85;;;22.67;;
45206;SDS011;30950;53.086;21.576;2023-12-07T08:30:01;42.03;;;24.02;;
45206;SDS011;30950;53.086;21.576;2023-12-07T08:32:29;43.30;;;24.55;;
45206;SDS011;30950;53.086;21.576;2023-12-07T08:34:56;44.40;;;24.80;;
45206;SDS011;30950;53.086;21.576;2023-12-07T08:37:24;46.88;;;25.70;;
45206;SDS011;30950;53.086;21.576;2023-12-07T08:39:52;44.30;;;25.50;;
45206;SDS011;30950;53.086;21.576;2023-12-07T08:42:19;48.28;;;25.23;;
45206;SDS011;30950;53.086;21.576;2023-12-07T08:44:47;50.83;;;26.85;;
45206;SDS011;30950;53.086;21.576;2023-12-07T08:47:14;47.28;;;25.38;;
45206;SDS011;30950;53.086;21.576;2023-12-07T08:49:42;46.25;;;24.88;;
45206;SDS011;30950;53.086;21.576;2023-12-07T08:52:09;45.88;;;24.60;;
45206;SDS011;30950;53.086;21.576;2023-12-07T08:57:24;42.97;;;22.90;;
45206;SDS011;30950;53.086;21.576;2023-12-07T08:59:51;41.10;;;23.17;;
45206;SDS011;30950;53.086;21.576;2023-12-07T09:02:19;39.15;;;22.23;;
45206;SDS011;30950;53.086;21.576;2023-12-07T09:05:04;48.03;;;25.20;;
45206;SDS011;30950;53.086;21.576;2023-12-07T09:07:31;42.92;;;24.95;;
45206;SDS011;30950;53.086;21.576;2023-12-07T09:09:59;40.63;;;22.58;;
45206;SDS011;30950;53.086;21.576;2023-12-07T09:12:26;41.42;;;22.55;;
45206;SDS011;30950;53.086;21.576;2023-12-07T09:15:04;42.05;;;24.35;;
45206;SDS011;30950;53.086;21.576;2023-12-07T09:17:34;39.15;;;23.90;;
45206;SDS011;30950;53.086;21.576;2023-12-07T09:20:09;40.55;;;23.52;;
45206;SDS011;30950;53.086;21.576;2023-12-07T09:22:42;40.75;;;22.85;;
45206;SDS011;30950;53.086;21.576;2023-12-07T09:25:11;40.28;;;22.48;;
45206;SDS011;30950;53.086;21.576;2023-12-07T09:27:39;41.22;;;23.63;;
45206;SDS011;30950;53.086;21.576;2023-12-07T09:30:08;39.88;;;22.92;;
45206;SDS011;30950;53.086;21.576;2023-12-07T09:32:40;37.45;;;22.38;;
45206;SDS011;30950;53.086;21.576;2023-12-07T09:35:11;39.30;;;23.73;;
45206;SDS011;30950;53.086;21.576;2023-12-07T09:37:47;39.35;;;23.23;;
45206;SDS011;30950;53.086;21.576;2023-12-07T09:40:18;43.78;;;23.95;;
45206;SDS011;30950;53.086;21.576;2023-12-07T09:42:48;42.38;;;25.20;;
45206;SDS011;30950;53.086;21.576;2023-12-07T09:45:17;38.67;;;22.20;;
45206;SDS011;30950;53.086;21.576;2023-12-07T09:47:47;39.85;;;22.73;;
45206;SDS011;30950;53.086;21.576;2023-12-07T09:50:23;41.53;;;22.55;;
45206;SDS011;30950;53.086;21.576;2023-12-07T09:52:53;44.53;;;23.58;;
45206;SDS011;30950;53.086;21.576;2023-12-07T09:55:34;37.97;;;23.58;;
45206;SDS011;30950;53.086;21.576;2023-12-07T09:58:04;40.55;;;24.33;;
45206;SDS011;30950;53.086;21.576;2023-12-07T10:00:35;42.08;;;24.35;;
45206;SDS011;30950;53.086;21.576;2023-12-07T10:03:05;40.83;;;24.48;;
45206;SDS011;30950;53.086;21.576;2023-12-07T10:05:55;42.03;;;22.98;;
45206;SDS011;30950;53.086;21.576;2023-12-07T10:08:29;40.15;;;23.90;;
45206;SDS011;30950;53.086;21.576;2023-12-07T10:11:05;43.50;;;23.90;;
45206;SDS011;30950;53.086;21.576;2023-12-07T10:13:37;41.15;;;22.55;;
45206;SDS011;30950;53.086;21.576;2023-12-07T10:16:15;38.50;;;23.13;;
45206;SDS011;30950;53.086;21.576;2023-12-07T10:18:43;34.92;;;21.50;;
45206;SDS011;30950;53.086;21.576;2023-12-07T10:21:12;39.38;;;23.92;;
45206;SDS011;30950;53.086;21.576;2023-12-07T10:23:41;41.25;;;24.33;;
45206;SDS011;30950;53.086;21.576;2023-12-07T10:26:15;40.40;;;22.65;;
45206;SDS011;30950;53.086;21.576;2023-12-07T10:28:46;41.97;;;24.13;;
45206;SDS011;30950;53.086;21.576;2023-12-07T10:31:21;42.17;;;24.17;;
45206;SDS011;30950;53.086;21.576;2023-12-07T10:33:49;42.50;;;23.88;;
45206;SDS011;30950;53.086;21.576;2023-12-07T10:36:17;37.13;;;22.77;;
45206;SDS011;30950;53.086;21.576;2023-12-07T10:38:45;42.35;;;24.42;;
45206;SDS011;30950;53.086;21.576;2023-12-07T10:41:14;45.13;;;24.55;;
45206;SDS011;30950;53.086;21.576;2023-12-07T10:43:43;44.85;;;25.45;;
45206;SDS011;30950;53.086;21.576;2023-12-07T10:46:14;40.47;;;24.90;;
45206;SDS011;30950;53.086;21.576;2023-12-07T10:48:45;45.70;;;26.48;;
45206;SDS011;30950;53.086;21.576;2023-12-07T10:51:20;46.78;;;26.15;;
45206;SDS011;30950;53.086;21.576;2023-12-07T10:53:57;45.45;;;25.45;;
45206;SDS011;30950;53.086;21.576;2023-12-07T10:56:35;39.58;;;24.23;;
45206;SDS011;30950;53.086;21.576;2023-12-07T10:59:09;38.63;;;23.95;;
45206;SDS011;30950;53.086;21.576;2023-12-07T11:01:53;39.08;;;23.50;;
45206;SDS011;30950;53.086;21.576;2023-12-07T11:04:21;37.58;;;24.48;;
45206;SDS011;30950;53.086;21.576;2023-12-07T11:06:50;40.13;;;22.80;;
45206;SDS011;30950;53.086;21.576;2023-12-07T11:09:21;39.90;;;25.17;;
45206;SDS011;30950;53.086;21.576;2023-12-07T11:12:06;41.42;;;24.67;;
45206;SDS011;30950;53.086;21.576;2023-12-07T11:14:40;45.70;;;27.88;;
45206;SDS011;30950;53.086;21.576;2023-12-07T11:17:08;48.22;;;28.20;;
45206;SDS011;30950;53.086;21.576;2023-12-07T11:22:07;40.65;;;24.40;;
45206;SDS011;30950;53.086;21.576;2023-12-07T11:24:36;38.85;;;24.20;;
45206;SDS011;30950;53.086;21.576;2023-12-07T11:27:04;42.72;;;26.13;;
45206;SDS011;30950;53.086;21.576;2023-12-07T11:29:31;39.85;;;23.08;;
45206;SDS011;30950;53.086;21.576;2023-12-07T11:32:03;39.30;;;24.08;;
45206;SDS011;30950;53.086;21.576;2023-12-07T11:34:43;43.08;;;25.90;;
45206;SDS011;30950;53.086;21.576;2023-12-07T11:37:14;43.65;;;23.88;;
45206;SDS011;30950;53.086;21.576;2023-12-07T11:39:44;40.80;;;23.88;;
45206;SDS011;30950;53.086;21.576;2023-12-07T11:42:16;37.50;;;22.88;;
45206;SDS011;30950;53.086;21.576;2023-12-07T11:44:45;41.33;;;24.45;;
45206;SDS011;30950;53.086;21.576;2023-12-07T11:47:18;39.95;;;23.73;;
45206;SDS011;30950;53.086;21.576;2023-12-07T11:49:47;41.90;;;24.65;;
45206;SDS011;30950;53.086;21.576;2023-12-07T11:52:16;40.83;;;26.67;;
45206;SDS011;30950;53.086;21.576;2023-12-07T11:54:49;42.50;;;26.02;;
45206;SDS011;30950;53.086;21.576;2023-12-07T11:57:17;41.80;;;24.10;;
45206;SDS011;30950;53.086;21.576;2023-12-07T11:59:45;41.75;;;24.80;;
45206;SDS011;30950;53.086;21.576;2023-12-07T12:02:16;38.63;;;23.27;;
45206;SDS011;30950;53.086;21.576;2023-12-07T12:04:43;41.03;;;23.70;;
45206;SDS011;30950;53.086;21.576;2023-12-07T12:07:11;40.65;;;23.92;;
45206;SDS011;30950;53.086;21.576;2023-12-07T12:09:38;40.33;;;25.67;;
45206;SDS011;30950;53.086;21.576;2023-12-07T12:12:07;44.08;;;24.48;;
45206;SDS011;30950;53.086;21.576;2023-12-07T12:14:34;40.35;;;24.15;;
45206;SDS011;30950;53.086;21.576;2023-12-07T12:17:02;36.00;;;22.30;;
45206;SDS011;30950;53.086;21.576;2023-12-07T12:19:30;38.10;;;21.83;;
45206;SDS011;30950;53.086;21.576;2023-12-07T12:22:03;38.67;;;22.48;;
45206;SDS011;30950;53.086;21.576;2023-12-07T12:24:36;35.17;;;22.23;;
45206;SDS011;30950;53.086;21.576;2023-12-07T12:27:07;38.95;;;21.92;;
45206;SDS011;30950;53.086;21.576;2023-12-07T12:29:34;37.53;;;23.65;;
45206;SDS011;30950;53.086;21.576;2023-12-07T12:32:03;41.47;;;22.55;;
45206;SDS011;30950;53.086;21.576;2023-12-07T12:34:33;36.38;;;22.02;;
45206;SDS011;30950;53.086;21.576;2023-12-07T12:37:03;37.92;;;21.27;;
45206;SDS011;30950;53.086;21.576;2023-12-07T12:39:33;38.28;;;21.98;;
45206;SDS011;30950;53.086;21.576;2023-12-07T12:42:02;36.65;;;21.40;;
45206;SDS011;30950;53.086;21.576;2023-12-07T12:44:31;34.38;;;22.98;;
45206;SDS011;30950;53.086;21.576;2023-12-07T12:47:07;37.38;;;22.65;;
45206;SDS011;30950;53.086;21.576;2023-12-07T12:49:40;38.13;;;22.38;;
45206;SDS011;30950;53.086;21.576;2023-12-07T12:52:14;41.42;;;24.75;;
45206;SDS011;30950;53.086;21.576;2023-12-07T12:54:45;43.00;;;25.60;;
45206;SDS011;30950;53.086;21.576;2023-12-07T12:57:15;37.63;;;22.80;;
45206;SDS011;30950;53.086;21.576;2023-12-07T12:59:42;37.70;;;22.67;;
45206;SDS011;30950;53.086;21.576;2023-12-07T13:02:12;40.35;;;23.40;;
45206;SDS011;30950;53.086;21.576;2023-12-07T13:04:39;42.75;;;25.13;;
45206;SDS011;30950;53.086;21.576;2023-12-07T13:07:11;41.22;;;24.25;;
45206;SDS011;30950;53.086;21.576;2023-12-07T13:09:39;37.97;;;21.15;;
45206;SDS011;30950;53.086;21.576;2023-12-07T13:12:07;41.42;;;22.23;;
45206;SDS011;30950;53.086;21.576;2023-12-07T13:14:35;40.15;;;24.52;;
45206;SDS011;30950;53.086;21.576;2023-12-07T13:17:06;39.97;;;24.10;;
45206;SDS011;30950;53.086;21.576;2023-12-07T13:19:36;40.38;;;22.90;;
45206;SDS011;30950;53.086;21.576;2023-12-07T13:22:04;39.20;;;22.95;;
45206;SDS011;30950;53.086;21.576;2023-12-07T13:24:31;42.25;;;22.00;;
45206;SDS011;30950;53.086;21.576;2023-12-07T13:26:59;37.08;;;21.73;;
45206;SDS011;30950;53.086;21.576;2023-12-07T13:29:27;39.95;;;21.70;;
45206;SDS011;30950;53.086;21.576;2023-12-07T13:32:03;38.33;;;22.90;;
45206;SDS011;30950;53.086;21.576;2023-12-07T13:34:31;35.97;;;23.10;;
45206;SDS011;30950;53.086;21.576;2023-12-07T13:36:59;37.15;;;22.20;;
45206;SDS011;30950;53.086;21.576;2023-12-07T13:39:27;36.95;;;21.90;;
45206;SDS011;30950;53.086;21.576;2023-12-07T13:41:58;41.88;;;23.75;;
45206;SDS011;30950;53.086;21.576;2023-12-07T13:44:30;38.72;;;21.83;;
45206;SDS011;30950;53.086;21.576;2023-12-07T13:47:00;37.55;;;23.00;;
45206;SDS011;30950;53.086;21.576;2023-12-07T13:49:27;40.10;;;21.65;;
45206;SDS011;30950;53.086;21.576;2023-12-07T13:52:03;35.42;;;20.40;;
45206;SDS011;30950;53.086;21.576;2023-12-07T13:54:38;40.95;;;22.75;;
45206;SDS011;30950;53.086;21.576;2023-12-07T13:57:22;43.25;;;23.67;;
45206;SDS011;30950;53.086;21.576;2023-12-07T13:59:54;39.75;;;22.98;;
45206;SDS011;30950;53.086;21.576;2023-12-07T14:02:22;35.53;;;20.95;;
45206;SDS011;30950;53.086;21.576;2023-12-07T14:04:50;41.28;;;20.90;;
45206;SDS011;30950;53.086;21.576;2023-12-07T14:07:18;40.90;;;22.67;;
45206;SDS011;30950;53.086;21.576;2023-12-07T14:09:48;41.05;;;23.63;;
45206;SDS011;30950;53.086;21.576;2023-12-07T14:12:25;39.20;;;23.33;;
45206;SDS011;30950;53.086;21.576;2023-12-07T14:14:56;38.13;;;23.10;;
45206;SDS011;30950;53.086;21.576;2023-12-07T14:17:24;47.65;;;22.85;;
45206;SDS011;30950;53.086;21.576;2023-12-07T14:19:54;43.53;;;23.17;;
45206;SDS011;30950;53.086;21.576;2023-12-07T14:22:36;35.63;;;22.25;;
45206;SDS011;30950;53.086;21.576;2023-12-07T14:25:05;45.40;;;23.95;;
45206;SDS011;30950;53.086;21.576;2023-12-07T14:27:33;40.78;;;24.70;;
45206;SDS011;30950;53.086;21.576;2023-12-07T14:30:00;41.65;;;23.60;;